createdAt,value
2017-12-21T00:01:39.651Z,8.37
2017-12-21T00:04:07.921Z,7.63
2017-12-21T00:06:35.417Z,7.20
2017-12-21T00:09:02.941Z,7.23
2017-12-21T00:11:30.455Z,6.30
2017-12-21T00:13:57.964Z,8.00
2017-12-21T00:16:26.240Z,7.10
2017-12-21T00:18:54.495Z,7.47
2017-12-21T00:21:22.020Z,7.80
2017-12-21T00:23:49.512Z,7.80
2017-12-21T00:26:17.051Z,8.60
2017-12-21T00:28:44.547Z,8.97
2017-12-21T00:31:12.824Z,9.17
2017-12-21T00:33:41.113Z,8.57
2017-12-21T00:36:08.664Z,8.30
2017-12-21T00:38:36.146Z,9.07
2017-12-21T00:41:03.636Z,8.87
2017-12-21T00:43:31.143Z,7.80
2017-12-21T00:46:10.706Z,9.97
2017-12-21T00:48:38.195Z,8.53
2017-12-21T00:51:07.197Z,9.67
2017-12-21T00:53:34.721Z,8.40
2017-12-21T00:56:02.211Z,9.93
2017-12-21T00:58:29.724Z,7.30
2017-12-21T01:00:57.224Z,9.47
2017-12-21T01:03:24.757Z,9.77
2017-12-21T01:05:52.271Z,10.10
2017-12-21T01:08:19.817Z,9.80
2017-12-21T01:10:47.312Z,10.90
2017-12-21T01:13:14.825Z,8.40
2017-12-21T01:15:43.104Z,9.50
2017-12-21T01:18:11.352Z,9.40
2017-12-21T01:20:38.905Z,12.20
2017-12-21T01:23:06.406Z,13.27
2017-12-21T01:25:34.690Z,14.20
2017-12-21T01:28:02.208Z,12.60
2017-12-21T01:30:29.768Z,12.97
2017-12-21T01:32:57.280Z,17.37
2017-12-21T01:35:24.808Z,18.20
2017-12-21T01:37:53.105Z,18.10
2017-12-21T01:40:20.617Z,16.13
2017-12-21T01:42:48.153Z,15.17
2017-12-21T01:45:15.649Z,17.90
2017-12-21T01:47:43.954Z,17.13
2017-12-21T01:50:11.468Z,18.20
2017-12-21T01:52:38.984Z,17.30
2017-12-21T01:55:06.475Z,13.23
2017-12-21T01:57:34.172Z,17.57
2017-12-21T02:00:01.692Z,14.70
2017-12-21T02:02:29.974Z,12.80
2017-12-21T02:04:57.496Z,14.43
2017-12-21T02:07:25.024Z,17.00
2017-12-21T02:09:52.568Z,16.43
2017-12-21T02:12:20.848Z,16.77
2017-12-21T02:14:49.157Z,17.17
2017-12-21T02:17:16.652Z,20.10
2017-12-21T02:19:44.157Z,17.93
2017-12-21T02:22:12.280Z,19.00
2017-12-21T02:24:39.775Z,18.20
2017-12-21T02:27:07.312Z,15.23
2017-12-21T02:29:35.576Z,19.50
2017-12-21T02:32:03.138Z,19.13
2017-12-21T02:34:30.673Z,21.47
2017-12-21T02:36:58.165Z,20.13
2017-12-21T02:39:26.453Z,19.40
2017-12-21T02:41:54.720Z,20.57
2017-12-21T02:44:22.988Z,20.93
2017-12-21T02:46:51.299Z,17.63
2017-12-21T02:49:18.804Z,19.03
2017-12-21T02:51:46.298Z,20.53
2017-12-21T02:54:13.843Z,16.33
2017-12-21T02:56:42.128Z,14.47
2017-12-21T02:59:09.644Z,12.93
2017-12-21T03:01:37.180Z,15.83
2017-12-21T03:04:04.677Z,14.80
2017-12-21T03:06:32.193Z,14.30
2017-12-21T03:08:59.697Z,14.27
2017-12-21T03:11:28.009Z,14.70
2017-12-21T03:13:55.512Z,15.83
2017-12-21T03:16:23.024Z,17.57
2017-12-21T03:18:50.552Z,15.40
2017-12-21T03:21:18.828Z,16.20
2017-12-21T03:23:47.118Z,15.77
2017-12-21T03:26:14.616Z,17.23
2017-12-21T03:28:42.129Z,14.40
2017-12-21T03:31:09.661Z,12.70
2017-12-21T03:33:37.152Z,14.30
2017-12-21T03:36:04.669Z,13.47
2017-12-21T03:38:32.926Z,16.43
2017-12-21T03:41:00.460Z,12.73
2017-12-21T03:43:28.031Z,14.80
2017-12-21T03:45:55.554Z,13.20
2017-12-21T03:48:23.112Z,15.20
2017-12-21T03:50:50.603Z,15.17
2017-12-21T03:53:18.095Z,12.40
2017-12-21T03:55:45.636Z,15.03
2017-12-21T03:58:13.137Z,14.83
2017-12-21T04:00:40.635Z,15.03
2017-12-21T04:03:08.148Z,15.50
2017-12-21T04:05:36.501Z,14.83
2017-12-21T04:08:04.033Z,15.37
2017-12-21T04:10:31.528Z,14.40
2017-12-21T04:12:59.828Z,14.50
2017-12-21T04:15:27.337Z,15.77
2017-12-21T04:17:54.836Z,17.70
2017-12-21T04:20:22.367Z,13.83
2017-12-21T04:22:49.864Z,16.70
2017-12-21T04:25:17.409Z,13.97
2017-12-21T04:27:45.672Z,15.93
2017-12-21T04:30:13.931Z,12.73
2017-12-21T04:32:41.441Z,16.40
2017-12-21T04:35:08.940Z,15.00
2017-12-21T04:37:36.453Z,14.07
2017-12-21T04:40:04.861Z,15.37
2017-12-21T04:42:32.378Z,14.67
2017-12-21T04:44:59.934Z,16.20
2017-12-21T04:47:27.449Z,15.30
2017-12-21T04:49:54.950Z,15.67
2017-12-21T04:52:22.472Z,13.83
2017-12-21T04:54:49.981Z,16.40
2017-12-21T04:57:17.516Z,17.43
2017-12-21T04:59:45.072Z,15.07
2017-12-21T05:02:12.620Z,15.90
2017-12-21T05:04:40.876Z,15.50
2017-12-21T05:07:08.381Z,15.40
2017-12-21T05:09:35.913Z,17.07
2017-12-21T05:12:04.210Z,14.47
2017-12-21T05:14:31.732Z,15.40
2017-12-21T05:17:00.079Z,15.67
2017-12-21T05:19:27.576Z,18.10
2017-12-21T05:21:55.843Z,14.73
2017-12-21T05:24:24.138Z,17.17
2017-12-21T05:26:51.696Z,15.87
2017-12-21T05:29:19.218Z,19.47
2017-12-21T05:31:46.825Z,19.57
2017-12-21T05:34:14.378Z,16.17
2017-12-21T05:36:41.874Z,20.50
2017-12-21T05:39:09.402Z,16.57
2017-12-21T05:41:36.900Z,17.53
2017-12-21T05:44:04.395Z,17.57
2017-12-21T05:46:31.924Z,19.60
2017-12-21T05:49:00.286Z,21.50
2017-12-21T05:51:27.812Z,18.30
2017-12-21T05:53:55.321Z,20.33
2017-12-21T05:56:22.850Z,22.50
2017-12-21T05:58:50.372Z,20.67
2017-12-21T06:01:17.866Z,23.83
2017-12-21T06:03:45.376Z,18.70
2017-12-21T06:06:12.889Z,23.13
2017-12-21T06:08:40.412Z,17.60
2017-12-21T06:11:07.919Z,20.93
2017-12-21T06:13:35.464Z,20.10
2017-12-21T06:16:02.984Z,19.10
2017-12-21T06:18:30.471Z,24.10
2017-12-21T06:20:58.007Z,18.80
2017-12-21T06:23:25.517Z,20.73
2017-12-21T06:25:53.889Z,19.77
2017-12-21T06:28:21.379Z,21.43
2017-12-21T06:30:48.913Z,19.40
2017-12-21T06:33:17.178Z,19.80
2017-12-21T06:35:44.709Z,20.93
2017-12-21T06:38:12.223Z,22.13
2017-12-21T06:40:39.789Z,22.17
2017-12-21T06:43:07.297Z,21.30
2017-12-21T06:45:34.797Z,22.07
2017-12-21T06:48:02.308Z,18.93
2017-12-21T06:50:29.812Z,19.40
2017-12-21T06:52:57.355Z,19.10
2017-12-21T06:55:25.629Z,18.57
2017-12-21T06:57:53.895Z,22.40
2017-12-21T07:00:22.188Z,21.23
2017-12-21T07:02:49.757Z,18.47
2017-12-21T07:05:17.304Z,19.53
2017-12-21T07:07:45.574Z,19.00
2017-12-21T07:10:13.872Z,16.60
2017-12-21T07:12:41.393Z,18.70
2017-12-21T07:15:08.931Z,16.73
2017-12-21T07:17:36.432Z,19.87
2017-12-21T07:20:03.940Z,17.87
2017-12-21T07:22:31.449Z,17.73
2017-12-21T07:24:58.965Z,15.50
2017-12-21T07:27:26.507Z,16.10
2017-12-21T07:29:54.028Z,16.20
2017-12-21T07:32:21.540Z,18.67
2017-12-21T07:34:49.060Z,18.40
2017-12-21T07:37:16.592Z,20.50
2017-12-21T07:39:44.126Z,17.70
2017-12-21T07:42:11.662Z,17.27
2017-12-21T07:44:39.169Z,17.97
2017-12-21T07:47:06.692Z,16.67
2017-12-21T07:49:34.213Z,16.27
2017-12-21T07:52:03.479Z,15.93
2017-12-21T07:54:30.983Z,14.07
2017-12-21T07:56:58.496Z,14.50
2017-12-21T07:59:26.068Z,16.60
2017-12-21T08:01:53.565Z,15.10
2017-12-21T08:04:21.138Z,12.80
2017-12-21T08:06:48.634Z,15.03
2017-12-21T08:09:16.137Z,16.23
2017-12-21T08:11:43.649Z,13.90
2017-12-21T08:14:11.184Z,15.97
2017-12-21T08:16:39.467Z,14.87
2017-12-21T08:19:07.743Z,15.37
2017-12-21T08:21:36.028Z,14.47
2017-12-21T08:24:03.547Z,12.33
2017-12-21T08:26:31.091Z,13.97
2017-12-21T08:28:58.600Z,14.80
2017-12-21T08:31:26.088Z,15.40
2017-12-21T08:33:53.616Z,15.80
2017-12-21T08:36:21.132Z,13.80
2017-12-21T08:38:48.645Z,12.00
2017-12-21T08:41:16.145Z,13.07
2017-12-21T08:43:43.669Z,14.80
2017-12-21T08:46:11.182Z,13.90
2017-12-21T08:48:39.496Z,13.80
2017-12-21T08:51:06.991Z,13.43
2017-12-21T08:53:34.552Z,11.90
2017-12-21T08:56:02.069Z,13.83
2017-12-21T08:58:29.600Z,12.10
2017-12-21T09:00:57.859Z,12.90
2017-12-21T09:03:25.358Z,12.17
2017-12-21T09:05:52.903Z,13.17
2017-12-21T09:08:20.415Z,12.33
2017-12-21T09:10:47.959Z,11.43
2017-12-21T09:13:15.480Z,12.13
2017-12-21T09:15:42.989Z,13.70
2017-12-21T09:18:10.512Z,10.57
2017-12-21T09:20:38.018Z,12.27
2017-12-21T09:23:06.324Z,12.43
2017-12-21T09:25:33.825Z,12.80
2017-12-21T09:28:01.349Z,13.90
2017-12-21T09:30:28.847Z,14.13
2017-12-21T09:32:56.365Z,12.77
2017-12-21T09:35:23.891Z,12.83
2017-12-21T09:37:52.166Z,13.57
2017-12-21T09:40:20.450Z,13.70
2017-12-21T09:42:48.720Z,13.67
2017-12-21T09:45:17.006Z,11.47
2017-12-21T09:47:44.501Z,11.37
2017-12-21T09:50:12.046Z,10.80
2017-12-21T09:52:39.566Z,12.93
2017-12-21T09:55:07.829Z,12.87
2017-12-21T09:57:35.352Z,13.20
2017-12-21T10:00:02.847Z,12.70
2017-12-21T10:02:31.144Z,12.23
2017-12-21T10:04:58.654Z,12.57
2017-12-21T10:07:26.185Z,12.90
2017-12-21T10:09:53.689Z,13.13
2017-12-21T10:12:21.977Z,12.97
2017-12-21T10:14:50.260Z,11.53
2017-12-21T10:17:18.528Z,11.40
2017-12-21T10:19:46.817Z,10.03
2017-12-21T10:22:14.317Z,11.13
2017-12-21T10:24:41.832Z,11.90
2017-12-21T10:27:09.359Z,11.03
2017-12-21T10:29:36.882Z,10.67
2017-12-21T10:32:04.415Z,11.33
2017-12-21T10:34:31.942Z,11.83
2017-12-21T10:37:00.226Z,11.80
2017-12-21T10:39:28.578Z,12.33
2017-12-21T10:41:56.172Z,12.03
2017-12-21T10:44:23.744Z,10.93
2017-12-21T10:46:51.241Z,9.87
2017-12-21T10:49:18.765Z,12.47
2017-12-21T10:51:46.263Z,9.13
2017-12-21T10:54:13.781Z,11.07
2017-12-21T10:56:41.280Z,11.80
2017-12-21T10:59:08.812Z,10.07
2017-12-21T11:01:36.339Z,9.60
2017-12-21T11:04:03.847Z,8.43
2017-12-21T11:06:31.368Z,10.23
2017-12-21T11:08:58.882Z,9.20
2017-12-21T11:11:26.404Z,9.90
2017-12-21T11:13:53.903Z,9.63
2017-12-21T11:16:22.182Z,10.10
2017-12-21T11:18:50.473Z,9.10
2017-12-21T11:21:18.015Z,10.27
2017-12-21T11:23:46.277Z,10.13
2017-12-21T11:26:13.801Z,9.57
2017-12-21T11:28:41.311Z,9.33
2017-12-21T11:31:09.579Z,9.60
2017-12-21T11:33:37.864Z,9.30
2017-12-21T11:36:06.172Z,10.07
2017-12-21T11:38:33.712Z,10.97
2017-12-21T11:41:01.221Z,10.10
2017-12-21T11:43:28.750Z,10.70
2017-12-21T11:45:56.243Z,9.00
2017-12-21T11:48:23.744Z,9.40
2017-12-21T11:50:51.286Z,9.13
2017-12-21T11:53:19.549Z,11.03
2017-12-21T11:55:47.846Z,12.70
2017-12-21T11:58:15.364Z,11.20
2017-12-21T12:00:42.874Z,9.10
2017-12-21T12:03:10.408Z,10.60
2017-12-21T12:05:38.716Z,9.87
2017-12-21T12:08:06.209Z,9.40
2017-12-21T12:10:33.737Z,9.50
2017-12-21T12:13:01.288Z,10.70
2017-12-21T12:15:28.822Z,10.47
2017-12-21T12:17:56.350Z,10.60
2017-12-21T12:20:23.905Z,11.23
2017-12-21T12:22:51.398Z,7.70
2017-12-21T12:25:18.888Z,8.30
2017-12-21T12:27:46.422Z,6.13
2017-12-21T12:30:13.944Z,5.50
2017-12-21T12:32:41.456Z,6.60
2017-12-21T12:35:08.957Z,5.80
2017-12-21T12:37:36.482Z,5.60
2017-12-21T12:40:03.988Z,6.67
2017-12-21T12:42:32.341Z,5.70
2017-12-21T12:44:59.840Z,5.80
2017-12-21T12:47:27.391Z,5.27
2017-12-21T12:49:54.905Z,4.40
2017-12-21T12:52:22.396Z,5.13
2017-12-21T12:54:50.684Z,4.27
2017-12-21T12:57:18.186Z,4.80
2017-12-21T12:59:45.707Z,4.70
2017-12-21T13:02:13.210Z,4.80
2017-12-21T13:04:40.714Z,5.00
2017-12-21T13:07:08.281Z,4.40
2017-12-21T13:09:35.829Z,4.50
2017-12-21T13:12:03.320Z,4.20
2017-12-21T13:14:30.823Z,4.57
2017-12-21T13:16:59.110Z,4.37
2017-12-21T13:19:27.397Z,4.20
2017-12-21T13:21:54.927Z,4.60
2017-12-21T13:24:23.221Z,4.80
2017-12-21T13:26:50.764Z,4.60
2017-12-21T13:29:19.025Z,4.30
2017-12-21T13:31:46.542Z,4.40
2017-12-21T13:34:14.076Z,4.80
2017-12-21T13:36:41.566Z,4.47
2017-12-21T13:39:09.096Z,4.87
2017-12-21T13:41:36.648Z,5.43
2017-12-21T13:44:04.138Z,6.47
2017-12-21T13:46:31.677Z,5.40
2017-12-21T13:48:59.181Z,4.57
2017-12-21T13:51:26.685Z,5.23
2017-12-21T13:53:54.192Z,6.40
2017-12-21T13:56:22.493Z,4.90
2017-12-21T13:58:50.059Z,4.70
2017-12-21T14:01:18.364Z,4.87
2017-12-21T14:03:45.864Z,4.50
2017-12-21T14:06:13.380Z,5.70
2017-12-21T14:08:40.896Z,5.87
2017-12-21T14:11:09.159Z,4.60
2017-12-21T14:13:37.448Z,5.37
2017-12-21T14:16:05.719Z,5.30
2017-12-21T14:18:34.036Z,5.77
2017-12-21T14:21:01.528Z,4.63
2017-12-21T14:23:29.016Z,6.47
2017-12-21T14:25:57.306Z,5.57
2017-12-21T14:28:24.813Z,7.77
2017-12-21T14:30:52.331Z,5.57
2017-12-21T14:33:19.858Z,7.00
2017-12-21T14:35:48.121Z,5.63
2017-12-21T14:38:15.645Z,5.97
2017-12-21T14:40:43.186Z,7.07
2017-12-21T14:43:10.746Z,5.77
2017-12-21T14:45:38.304Z,6.23
2017-12-21T14:48:05.820Z,6.37
2017-12-21T14:50:34.079Z,5.60
2017-12-21T14:53:01.619Z,6.53
2017-12-21T14:55:29.165Z,7.20
2017-12-21T14:57:56.678Z,6.33
2017-12-21T15:00:24.940Z,7.23
2017-12-21T15:02:53.267Z,6.90
2017-12-21T15:05:20.770Z,6.80
2017-12-21T15:07:48.305Z,6.33
2017-12-21T15:10:16.650Z,7.60
2017-12-21T15:12:44.159Z,6.90
2017-12-21T15:15:11.670Z,7.30
2017-12-21T15:17:39.196Z,7.63
2017-12-21T15:20:07.457Z,5.33
2017-12-21T15:22:35.752Z,6.67
2017-12-21T15:25:04.021Z,6.77
2017-12-21T15:27:32.310Z,6.40
2017-12-21T15:29:59.810Z,5.60
2017-12-21T15:32:27.337Z,6.50
2017-12-21T15:34:54.840Z,5.40
2017-12-21T15:37:22.378Z,6.80
2017-12-21T15:39:49.876Z,5.93
2017-12-21T15:42:18.145Z,6.97
2017-12-21T15:44:45.673Z,8.10
2017-12-21T15:47:13.191Z,6.70
2017-12-21T15:49:40.776Z,7.70
2017-12-21T15:52:08.284Z,7.37
2017-12-21T15:54:36.562Z,7.97
2017-12-21T15:57:04.856Z,9.80
2017-12-21T15:59:32.358Z,9.00
2017-12-21T16:01:59.889Z,9.90
2017-12-21T16:04:27.421Z,10.07
2017-12-21T16:06:55.732Z,10.40
2017-12-21T16:09:23.260Z,12.20
2017-12-21T16:11:50.753Z,9.63
2017-12-21T16:14:18.303Z,9.17
2017-12-21T16:16:45.948Z,9.20
2017-12-21T16:19:13.477Z,7.60
2017-12-21T16:21:41.760Z,8.53
2017-12-21T16:24:10.060Z,7.37
2017-12-21T16:26:37.866Z,7.83
2017-12-21T16:29:05.383Z,8.60
2017-12-21T16:31:32.904Z,6.47
2017-12-21T16:34:01.227Z,7.20
2017-12-21T16:36:28.744Z,6.57
2017-12-21T16:38:57.053Z,10.27
2017-12-21T16:41:24.598Z,9.13
2017-12-21T16:43:52.088Z,8.90
2017-12-21T16:46:19.645Z,8.43
2017-12-21T16:48:47.151Z,6.60
2017-12-21T16:51:15.428Z,7.00
2017-12-21T16:53:43.713Z,6.70
2017-12-21T16:56:11.216Z,6.50
2017-12-21T16:58:38.764Z,6.50
2017-12-21T17:01:06.278Z,7.43
2017-12-21T17:03:34.576Z,6.63
2017-12-21T17:06:02.065Z,6.00
2017-12-21T17:08:29.585Z,7.00
2017-12-21T17:10:57.140Z,6.60
2017-12-21T17:13:24.628Z,7.50
2017-12-21T17:15:52.229Z,7.30
2017-12-21T17:18:20.489Z,7.33
2017-12-21T17:20:47.978Z,7.03
2017-12-21T17:23:16.292Z,6.57
2017-12-21T17:25:43.783Z,6.23
2017-12-21T17:28:11.300Z,8.17
2017-12-21T17:30:38.788Z,6.93
2017-12-21T17:33:07.098Z,7.07
2017-12-21T17:35:35.360Z,7.47
2017-12-21T17:38:03.641Z,7.20
2017-12-21T17:40:31.942Z,6.50
2017-12-21T17:42:59.441Z,7.10
2017-12-21T17:45:26.949Z,6.43
2017-12-21T17:47:54.465Z,5.20
2017-12-21T17:50:22.738Z,8.13
2017-12-21T17:52:50.261Z,5.60
2017-12-21T17:55:17.786Z,3.80
2017-12-21T17:57:46.066Z,5.43
2017-12-21T18:00:14.341Z,4.40
2017-12-21T18:02:41.904Z,4.40
2017-12-21T18:05:09.400Z,6.13
2017-12-21T18:07:36.938Z,6.43
2017-12-21T18:10:04.448Z,6.60
2017-12-21T18:12:31.978Z,5.93
2017-12-21T18:14:59.518Z,5.63
2017-12-21T18:17:27.014Z,7.23
2017-12-21T18:19:54.552Z,4.70
2017-12-21T18:22:22.077Z,4.70
2017-12-21T18:24:49.573Z,5.80
2017-12-21T18:27:17.175Z,6.90
2017-12-21T18:29:45.438Z,5.87
2017-12-21T18:32:13.725Z,8.50
2017-12-21T18:34:42.062Z,9.17
2017-12-21T18:37:09.583Z,7.27
2017-12-21T18:39:37.106Z,8.60
2017-12-21T18:42:05.408Z,7.00
2017-12-21T18:44:32.940Z,6.50
2017-12-21T18:47:01.211Z,6.40
2017-12-21T18:49:28.729Z,5.77
2017-12-21T18:51:56.243Z,5.67
2017-12-21T18:54:31.496Z,6.27
2017-12-21T18:56:58.992Z,7.00
2017-12-21T18:59:26.495Z,7.37
2017-12-21T19:01:54.794Z,7.70
2017-12-21T19:04:22.314Z,8.10
2017-12-21T19:06:50.636Z,7.13
2017-12-21T19:09:18.176Z,6.90
2017-12-21T19:11:45.727Z,6.40
2017-12-21T19:14:13.262Z,6.67
2017-12-21T19:16:41.526Z,6.37
2017-12-21T19:19:09.061Z,5.70
2017-12-21T19:21:36.566Z,6.90
2017-12-21T19:24:04.888Z,6.20
2017-12-21T19:26:32.388Z,5.50
2017-12-21T19:29:00.741Z,6.23
2017-12-21T19:31:28.247Z,7.10
2017-12-21T19:33:55.760Z,6.20
2017-12-21T19:36:23.282Z,6.30
2017-12-21T19:38:50.788Z,6.03
2017-12-21T19:41:19.085Z,5.77
2017-12-21T19:43:47.344Z,4.87
2017-12-21T19:46:15.629Z,5.37
2017-12-21T19:48:43.991Z,6.00
2017-12-21T19:51:11.499Z,5.90
2017-12-21T19:53:39.053Z,5.77
2017-12-21T19:56:06.580Z,5.37
2017-12-21T19:58:34.845Z,5.30
2017-12-21T20:01:02.431Z,5.57
2017-12-21T20:03:29.948Z,5.40
2017-12-21T20:05:57.474Z,5.03
2017-12-21T20:08:24.974Z,4.93
2017-12-21T20:10:53.297Z,5.10
2017-12-21T20:13:20.823Z,5.10
2017-12-21T20:15:49.102Z,5.03
2017-12-21T20:18:17.427Z,5.60
2017-12-21T20:20:44.944Z,6.73
2017-12-21T20:23:12.469Z,5.83
2017-12-21T20:25:40.752Z,5.70
2017-12-21T20:28:08.345Z,5.27
2017-12-21T20:30:35.980Z,4.73
2017-12-21T20:33:04.299Z,5.17
2017-12-21T20:35:32.000Z,4.80
2017-12-21T20:38:00.324Z,5.50
2017-12-21T20:40:27.851Z,5.60
2017-12-21T20:42:56.156Z,4.87
2017-12-21T20:45:23.689Z,6.67
2017-12-21T20:47:51.964Z,6.03
2017-12-21T20:50:20.279Z,5.60
2017-12-21T20:52:47.871Z,6.43
2017-12-21T20:55:15.461Z,5.97
2017-12-21T20:57:43.753Z,5.63
2017-12-21T21:00:11.290Z,6.30
2017-12-21T21:02:39.583Z,5.20
2017-12-21T21:05:07.117Z,5.90
2017-12-21T21:07:35.450Z,6.23
2017-12-21T21:10:03.009Z,4.40
2017-12-21T21:12:30.555Z,5.37
2017-12-21T21:14:58.060Z,4.70
2017-12-21T21:17:26.366Z,4.20
2017-12-21T21:19:53.864Z,5.10
2017-12-21T21:22:21.405Z,4.70
2017-12-21T21:24:48.914Z,4.60
2017-12-21T21:27:17.213Z,4.67
2017-12-21T21:29:45.008Z,4.03
2017-12-21T21:32:12.566Z,5.37
2017-12-21T21:34:40.090Z,5.73
2017-12-21T21:37:07.671Z,4.80
2017-12-21T21:39:35.219Z,4.77
2017-12-21T21:42:02.736Z,5.20
2017-12-21T21:44:30.270Z,4.53
2017-12-21T21:46:57.814Z,5.10
2017-12-21T21:49:25.336Z,4.83
2017-12-21T21:51:53.618Z,5.13
2017-12-21T21:54:21.140Z,4.10
2017-12-21T21:56:48.674Z,6.30
2017-12-21T21:59:16.212Z,5.53
2017-12-21T22:01:43.737Z,5.90
2017-12-21T22:04:12.029Z,5.50
2017-12-21T22:06:39.561Z,6.40
2017-12-21T22:09:07.885Z,6.20
2017-12-21T22:11:35.413Z,7.43
2017-12-21T22:14:02.922Z,6.30
2017-12-21T22:16:30.454Z,7.70
2017-12-21T22:18:57.952Z,5.63
2017-12-21T22:21:25.489Z,6.57
2017-12-21T22:23:53.013Z,5.60
2017-12-21T22:26:20.521Z,5.50
2017-12-21T22:28:48.094Z,5.00
2017-12-21T22:31:15.612Z,7.13
2017-12-21T22:33:43.136Z,8.70
2017-12-21T22:36:10.715Z,7.73
2017-12-21T22:38:38.214Z,7.37
2017-12-21T22:41:05.761Z,7.57
2017-12-21T22:43:33.265Z,7.30
2017-12-21T22:46:00.824Z,7.90
2017-12-21T22:48:28.356Z,8.60
2017-12-21T22:50:56.639Z,6.77
2017-12-21T22:53:24.928Z,6.27
2017-12-21T22:55:52.435Z,8.27
2017-12-21T22:58:19.986Z,7.97
2017-12-21T23:00:47.480Z,7.17
2017-12-21T23:03:14.993Z,6.33
2017-12-21T23:05:42.504Z,8.90
2017-12-21T23:08:10.805Z,8.00
2017-12-21T23:10:38.297Z,7.20
2017-12-21T23:13:05.802Z,7.50
2017-12-21T23:15:33.347Z,6.50
2017-12-21T23:18:01.627Z,6.53
2017-12-21T23:20:29.945Z,7.60
2017-12-21T23:22:57.441Z,7.20
2017-12-21T23:25:24.938Z,8.57
2017-12-21T23:27:52.467Z,8.90
2017-12-21T23:30:20.744Z,9.23
2017-12-21T23:32:49.076Z,7.00
2017-12-21T23:35:16.570Z,6.90
2017-12-21T23:37:44.861Z,7.33
2017-12-21T23:40:13.157Z,6.40
2017-12-21T23:42:40.721Z,8.97
2017-12-21T23:45:08.220Z,8.10
2017-12-21T23:47:35.734Z,9.80
2017-12-21T23:50:03.285Z,7.77
2017-12-21T23:52:30.777Z,7.30
2017-12-21T23:54:58.339Z,7.30
2017-12-21T23:57:25.825Z,9.03
2017-12-21T23:59:53.351Z,8.43
